sensor_id;sensor_type;location;lat;lon;timestamp;P1;durP1;ratioP1;P2;durP2;ratioP2
13897;SDS011;7019;50.766;4.474;2023-02-19T00:01:05;8.43;;;7.57;;
13897;SDS011;7019;50.766;4.474;2023-02-19T00:03:32;13.77;;;7.93;;
13897;SDS011;7019;50.766;4.474;2023-02-19T00:06:00;9.40;;;7.20;;
13897;SDS011;7019;50.766;4.474;2023-02-19T00:08:28;10.73;;;7.30;;
13897;SDS011;7019;50.766;4.474;2023-02-19T00:10:58;9.67;;;7.10;;
13897;SDS011;7019;50.766;4.474;2023-02-19T00:13:26;10.93;;;6.80;;
13897;SDS011;7019;50.766;4.474;2023-02-19T00:15:53;11.87;;;7.03;;
13897;SDS011;7019;50.766;4.474;2023-02-19T00:18:23;9.57;;;6.33;;
13897;SDS011;7019;50.766;4.474;2023-02-19T00:20:50;9.67;;;6.60;;
13897;SDS011;7019;50.766;4.474;2023-02-19T00:23:17;10.30;;;6.53;;
13897;SDS011;7019;50.766;4.474;2023-02-19T00:25:44;9.67;;;6.43;;
13897;SDS011;7019;50.766;4.474;2023-02-19T00:28:11;11.87;;;6.53;;
13897;SDS011;7019;50.766;4.474;2023-02-19T00:30:38;7.73;;;5.90;;
13897;SDS011;7019;50.766;4.474;2023-02-19T00:33:05;11.10;;;6.60;;
13897;SDS011;7019;50.766;4.474;2023-02-19T00:35:34;11.00;;;5.70;;
13897;SDS011;7019;50.766;4.474;2023-02-19T00:38:02;11.10;;;6.17;;
13897;SDS011;7019;50.766;4.474;2023-02-19T00:40:30;11.03;;;5.60;;
13897;SDS011;7019;50.766;4.474;2023-02-19T00:42:57;9.27;;;5.50;;
13897;SDS011;7019;50.766;4.474;2023-02-19T00:45:24;9.37;;;5.30;;
13897;SDS011;7019;50.766;4.474;2023-02-19T00:47:51;9.80;;;5.93;;
13897;SDS011;7019;50.766;4.474;2023-02-19T00:50:19;5.37;;;4.63;;
13897;SDS011;7019;50.766;4.474;2023-02-19T00:52:47;9.13;;;5.40;;
13897;SDS011;7019;50.766;4.474;2023-02-19T00:55:14;10.53;;;5.97;;
13897;SDS011;7019;50.766;4.474;2023-02-19T00:57:42;8.80;;;5.87;;
13897;SDS011;7019;50.766;4.474;2023-02-19T01:00:09;13.90;;;6.17;;
13897;SDS011;7019;50.766;4.474;2023-02-19T01:02:37;9.00;;;5.27;;
13897;SDS011;7019;50.766;4.474;2023-02-19T01:05:05;10.03;;;5.53;;
13897;SDS011;7019;50.766;4.474;2023-02-19T01:07:33;9.03;;;5.10;;
13897;SDS011;7019;50.766;4.474;2023-02-19T01:10:03;12.93;;;5.67;;
13897;SDS011;7019;50.766;4.474;2023-02-19T01:12:31;11.67;;;6.07;;
13897;SDS011;7019;50.766;4.474;2023-02-19T01:14:58;9.63;;;5.47;;
13897;SDS011;7019;50.766;4.474;2023-02-19T01:17:25;11.77;;;6.00;;
13897;SDS011;7019;50.766;4.474;2023-02-19T01:19:52;9.23;;;5.73;;
13897;SDS011;7019;50.766;4.474;2023-02-19T01:22:19;11.53;;;5.73;;
13897;SDS011;7019;50.766;4.474;2023-02-19T01:24:46;10.17;;;5.43;;
13897;SDS011;7019;50.766;4.474;2023-02-19T01:27:15;12.47;;;5.70;;
13897;SDS011;7019;50.766;4.474;2023-02-19T01:29:42;15.47;;;5.77;;
13897;SDS011;7019;50.766;4.474;2023-02-19T01:32:09;12.37;;;5.37;;
13897;SDS011;7019;50.766;4.474;2023-02-19T01:34:36;12.33;;;5.20;;
13897;SDS011;7019;50.766;4.474;2023-02-19T01:37:03;12.60;;;5.93;;
13897;SDS011;7019;50.766;4.474;2023-02-19T01:39:32;11.63;;;6.27;;
13897;SDS011;7019;50.766;4.474;2023-02-19T01:41:59;11.10;;;6.00;;
13897;SDS011;7019;50.766;4.474;2023-02-19T01:47:32;17.97;;;6.53;;
13897;SDS011;7019;50.766;4.474;2023-02-19T01:49:59;10.13;;;5.17;;
13897;SDS011;7019;50.766;4.474;2023-02-19T01:52:27;11.83;;;5.93;;
13897;SDS011;7019;50.766;4.474;2023-02-19T01:54:58;12.23;;;6.83;;
13897;SDS011;7019;50.766;4.474;2023-02-19T01:57:29;10.33;;;5.50;;
13897;SDS011;7019;50.766;4.474;2023-02-19T02:00:02;14.00;;;5.40;;
13897;SDS011;7019;50.766;4.474;2023-02-19T02:02:34;12.23;;;5.23;;
13897;SDS011;7019;50.766;4.474;2023-02-19T02:05:02;12.43;;;5.43;;
13897;SDS011;7019;50.766;4.474;2023-02-19T02:07:30;12.93;;;5.83;;
13897;SDS011;7019;50.766;4.474;2023-02-19T02:10:17;14.10;;;5.17;;
13897;SDS011;7019;50.766;4.474;2023-02-19T02:12:47;12.97;;;5.37;;
13897;SDS011;7019;50.766;4.474;2023-02-19T02:15:15;15.07;;;5.73;;
13897;SDS011;7019;50.766;4.474;2023-02-19T02:17:47;10.80;;;4.80;;
13897;SDS011;7019;50.766;4.474;2023-02-19T02:23:20;9.83;;;4.73;;
13897;SDS011;7019;50.766;4.474;2023-02-19T02:25:58;13.63;;;4.70;;
13897;SDS011;7019;50.766;4.474;2023-02-19T02:28:45;13.23;;;4.50;;
13897;SDS011;7019;50.766;4.474;2023-02-19T02:31:37;13.20;;;4.60;;
13897;SDS011;7019;50.766;4.474;2023-02-19T02:34:08;14.57;;;4.20;;
13897;SDS011;7019;50.766;4.474;2023-02-19T02:36:40;13.00;;;3.70;;
13897;SDS011;7019;50.766;4.474;2023-02-19T02:39:11;12.40;;;4.07;;
13897;SDS011;7019;50.766;4.474;2023-02-19T02:41:41;14.27;;;3.60;;
13897;SDS011;7019;50.766;4.474;2023-02-19T02:44:09;15.33;;;3.90;;
13897;SDS011;7019;50.766;4.474;2023-02-19T02:46:39;14.40;;;4.20;;
13897;SDS011;7019;50.766;4.474;2023-02-19T02:49:11;9.80;;;3.50;;
13897;SDS011;7019;50.766;4.474;2023-02-19T02:51:43;17.80;;;4.07;;
13897;SDS011;7019;50.766;4.474;2023-02-19T02:54:13;15.13;;;3.63;;
13897;SDS011;7019;50.766;4.474;2023-02-19T02:57:03;16.17;;;4.43;;
13897;SDS011;7019;50.766;4.474;2023-02-19T02:59:34;10.17;;;3.30;;
13897;SDS011;7019;50.766;4.474;2023-02-19T03:02:06;10.70;;;2.97;;
13897;SDS011;7019;50.766;4.474;2023-02-19T03:04:37;10.10;;;3.40;;
13897;SDS011;7019;50.766;4.474;2023-02-19T03:07:24;14.23;;;4.03;;
13897;SDS011;7019;50.766;4.474;2023-02-19T03:09:55;13.93;;;2.93;;
13897;SDS011;7019;50.766;4.474;2023-02-19T03:12:24;8.07;;;3.57;;
13897;SDS011;7019;50.766;4.474;2023-02-19T03:15:15;12.03;;;3.40;;
13897;SDS011;7019;50.766;4.474;2023-02-19T03:18:03;10.17;;;3.57;;
13897;SDS011;7019;50.766;4.474;2023-02-19T03:20:54;16.43;;;3.23;;
13897;SDS011;7019;50.766;4.474;2023-02-19T03:23:24;10.20;;;2.90;;
13897;SDS011;7019;50.766;4.474;2023-02-19T03:26:10;11.63;;;2.73;;
13897;SDS011;7019;50.766;4.474;2023-02-19T03:28:38;15.37;;;3.37;;
13897;SDS011;7019;50.766;4.474;2023-02-19T03:31:25;8.63;;;2.90;;
13897;SDS011;7019;50.766;4.474;2023-02-19T03:33:57;16.20;;;2.93;;
13897;SDS011;7019;50.766;4.474;2023-02-19T03:36:29;14.03;;;3.23;;
13897;SDS011;7019;50.766;4.474;2023-02-19T03:39:01;12.57;;;3.13;;
13897;SDS011;7019;50.766;4.474;2023-02-19T03:41:32;15.70;;;3.00;;
13897;SDS011;7019;50.766;4.474;2023-02-19T03:44:06;11.67;;;3.13;;
13897;SDS011;7019;50.766;4.474;2023-02-19T03:46:40;11.93;;;3.13;;
13897;SDS011;7019;50.766;4.474;2023-02-19T03:49:14;11.93;;;3.00;;
13897;SDS011;7019;50.766;4.474;2023-02-19T03:51:49;12.40;;;2.77;;
13897;SDS011;7019;50.766;4.474;2023-02-19T03:54:21;14.37;;;2.97;;
13897;SDS011;7019;50.766;4.474;2023-02-19T03:56:57;10.80;;;2.70;;
13897;SDS011;7019;50.766;4.474;2023-02-19T03:59:31;13.13;;;3.13;;
13897;SDS011;7019;50.766;4.474;2023-02-19T04:02:05;12.40;;;2.87;;
13897;SDS011;7019;50.766;4.474;2023-02-19T04:04:37;13.40;;;3.23;;
13897;SDS011;7019;50.766;4.474;2023-02-19T04:07:08;11.63;;;3.03;;
13897;SDS011;7019;50.766;4.474;2023-02-19T04:09:36;12.93;;;2.40;;
13897;SDS011;7019;50.766;4.474;2023-02-19T04:12:06;15.03;;;3.03;;
13897;SDS011;7019;50.766;4.474;2023-02-19T04:14:37;6.87;;;3.23;;
13897;SDS011;7019;50.766;4.474;2023-02-19T04:17:10;10.87;;;2.43;;
13897;SDS011;7019;50.766;4.474;2023-02-19T04:19:45;10.13;;;2.30;;
13897;SDS011;7019;50.766;4.474;2023-02-19T04:22:15;16.27;;;3.23;;
13897;SDS011;7019;50.766;4.474;2023-02-19T04:24:45;10.97;;;2.13;;
13897;SDS011;7019;50.766;4.474;2023-02-19T04:27:14;10.83;;;2.67;;
13897;SDS011;7019;50.766;4.474;2023-02-19T04:29:42;11.17;;;2.60;;
13897;SDS011;7019;50.766;4.474;2023-02-19T04:32:09;12.30;;;2.77;;
13897;SDS011;7019;50.766;4.474;2023-02-19T04:34:36;15.50;;;2.50;;
13897;SDS011;7019;50.766;4.474;2023-02-19T04:37:05;11.50;;;2.73;;
13897;SDS011;7019;50.766;4.474;2023-02-19T04:39:32;14.43;;;2.00;;
13897;SDS011;7019;50.766;4.474;2023-02-19T04:41:59;10.70;;;2.27;;
13897;SDS011;7019;50.766;4.474;2023-02-19T04:44:26;12.27;;;3.00;;
13897;SDS011;7019;50.766;4.474;2023-02-19T04:46:54;11.53;;;3.03;;
13897;SDS011;7019;50.766;4.474;2023-02-19T04:49:21;12.00;;;2.30;;
13897;SDS011;7019;50.766;4.474;2023-02-19T04:51:48;16.17;;;2.67;;
13897;SDS011;7019;50.766;4.474;2023-02-19T04:54:19;14.07;;;2.77;;
13897;SDS011;7019;50.766;4.474;2023-02-19T04:56:46;15.10;;;2.30;;
13897;SDS011;7019;50.766;4.474;2023-02-19T04:59:14;16.73;;;2.80;;
13897;SDS011;7019;50.766;4.474;2023-02-19T05:01:42;13.70;;;2.70;;
13897;SDS011;7019;50.766;4.474;2023-02-19T05:04:09;12.10;;;3.13;;
13897;SDS011;7019;50.766;4.474;2023-02-19T05:06:36;15.67;;;2.90;;
13897;SDS011;7019;50.766;4.474;2023-02-19T05:09:03;16.30;;;2.90;;
13897;SDS011;7019;50.766;4.474;2023-02-19T05:11:31;12.43;;;2.23;;
13897;SDS011;7019;50.766;4.474;2023-02-19T05:13:58;14.63;;;3.00;;
13897;SDS011;7019;50.766;4.474;2023-02-19T05:16:25;10.90;;;3.10;;
13897;SDS011;7019;50.766;4.474;2023-02-19T05:18:53;15.73;;;3.43;;
13897;SDS011;7019;50.766;4.474;2023-02-19T05:21:20;12.10;;;2.73;;
13897;SDS011;7019;50.766;4.474;2023-02-19T05:23:47;12.40;;;2.60;;
13897;SDS011;7019;50.766;4.474;2023-02-19T05:26:15;9.50;;;2.50;;
13897;SDS011;7019;50.766;4.474;2023-02-19T05:28:45;15.53;;;2.80;;
13897;SDS011;7019;50.766;4.474;2023-02-19T05:31:13;16.57;;;3.17;;
13897;SDS011;7019;50.766;4.474;2023-02-19T05:33:41;12.40;;;2.60;;
13897;SDS011;7019;50.766;4.474;2023-02-19T05:36:09;14.03;;;3.10;;
13897;SDS011;7019;50.766;4.474;2023-02-19T05:38:38;11.70;;;2.80;;
13897;SDS011;7019;50.766;4.474;2023-02-19T05:41:06;12.70;;;2.83;;
13897;SDS011;7019;50.766;4.474;2023-02-19T05:43:35;9.73;;;2.17;;
13897;SDS011;7019;50.766;4.474;2023-02-19T05:46:04;10.13;;;2.70;;
13897;SDS011;7019;50.766;4.474;2023-02-19T05:48:32;11.47;;;3.10;;
13897;SDS011;7019;50.766;4.474;2023-02-19T05:51:02;11.00;;;2.20;;
13897;SDS011;7019;50.766;4.474;2023-02-19T05:53:31;13.30;;;2.90;;
13897;SDS011;7019;50.766;4.474;2023-02-19T05:55:58;14.53;;;2.33;;
13897;SDS011;7019;50.766;4.474;2023-02-19T05:58:25;12.83;;;2.50;;
13897;SDS011;7019;50.766;4.474;2023-02-19T06:00:53;11.97;;;2.67;;
13897;SDS011;7019;50.766;4.474;2023-02-19T06:03:22;12.20;;;2.53;;
13897;SDS011;7019;50.766;4.474;2023-02-19T06:05:49;13.23;;;2.80;;
13897;SDS011;7019;50.766;4.474;2023-02-19T06:08:16;15.00;;;3.00;;
13897;SDS011;7019;50.766;4.474;2023-02-19T06:10:44;14.73;;;4.00;;
13897;SDS011;7019;50.766;4.474;2023-02-19T06:13:11;13.00;;;2.70;;
13897;SDS011;7019;50.766;4.474;2023-02-19T06:15:38;16.40;;;3.10;;
13897;SDS011;7019;50.766;4.474;2023-02-19T06:18:05;19.97;;;2.87;;
13897;SDS011;7019;50.766;4.474;2023-02-19T06:20:33;13.80;;;2.90;;
13897;SDS011;7019;50.766;4.474;2023-02-19T06:23:00;12.80;;;2.57;;
13897;SDS011;7019;50.766;4.474;2023-02-19T06:25:28;12.70;;;2.63;;
13897;SDS011;7019;50.766;4.474;2023-02-19T06:27:55;11.67;;;2.43;;
13897;SDS011;7019;50.766;4.474;2023-02-19T06:30:22;11.87;;;2.50;;
13897;SDS011;7019;50.766;4.474;2023-02-19T06:32:50;20.40;;;3.33;;
13897;SDS011;7019;50.766;4.474;2023-02-19T06:35:18;16.70;;;3.23;;
13897;SDS011;7019;50.766;4.474;2023-02-19T06:37:47;18.00;;;3.07;;
13897;SDS011;7019;50.766;4.474;2023-02-19T06:40:14;15.90;;;3.10;;
13897;SDS011;7019;50.766;4.474;2023-02-19T06:42:42;13.50;;;3.20;;
13897;SDS011;7019;50.766;4.474;2023-02-19T06:45:09;17.43;;;3.13;;
13897;SDS011;7019;50.766;4.474;2023-02-19T06:47:36;12.00;;;2.70;;
13897;SDS011;7019;50.766;4.474;2023-02-19T06:50:04;13.37;;;3.50;;
13897;SDS011;7019;50.766;4.474;2023-02-19T06:52:31;11.50;;;2.50;;
13897;SDS011;7019;50.766;4.474;2023-02-19T06:55:00;15.53;;;2.90;;
13897;SDS011;7019;50.766;4.474;2023-02-19T06:57:27;11.60;;;2.80;;
13897;SDS011;7019;50.766;4.474;2023-02-19T06:59:54;12.37;;;2.67;;
13897;SDS011;7019;50.766;4.474;2023-02-19T07:02:21;15.40;;;2.93;;
13897;SDS011;7019;50.766;4.474;2023-02-19T07:04:48;16.40;;;3.17;;
13897;SDS011;7019;50.766;4.474;2023-02-19T07:07:16;12.77;;;2.80;;
13897;SDS011;7019;50.766;4.474;2023-02-19T07:09:43;10.40;;;2.77;;
13897;SDS011;7019;50.766;4.474;2023-02-19T07:12:11;12.27;;;2.47;;
13897;SDS011;7019;50.766;4.474;2023-02-19T07:14:39;10.13;;;2.47;;
13897;SDS011;7019;50.766;4.474;2023-02-19T07:17:06;11.03;;;2.53;;
13897;SDS011;7019;50.766;4.474;2023-02-19T07:19:33;12.50;;;3.13;;
13897;SDS011;7019;50.766;4.474;2023-02-19T07:22:03;14.30;;;3.30;;
13897;SDS011;7019;50.766;4.474;2023-02-19T07:24:30;15.60;;;3.17;;
13897;SDS011;7019;50.766;4.474;2023-02-19T07:27:00;11.23;;;2.63;;
13897;SDS011;7019;50.766;4.474;2023-02-19T07:29:29;10.13;;;2.87;;
13897;SDS011;7019;50.766;4.474;2023-02-19T07:31:56;13.00;;;2.93;;
13897;SDS011;7019;50.766;4.474;2023-02-19T07:34:23;19.90;;;3.67;;
13897;SDS011;7019;50.766;4.474;2023-02-19T07:36:51;10.60;;;2.90;;
13897;SDS011;7019;50.766;4.474;2023-02-19T07:39:18;12.80;;;2.80;;
13897;SDS011;7019;50.766;4.474;2023-02-19T07:41:45;11.90;;;2.43;;
13897;SDS011;7019;50.766;4.474;2023-02-19T07:44:12;12.23;;;3.53;;
13897;SDS011;7019;50.766;4.474;2023-02-19T07:46:42;15.80;;;3.30;;
13897;SDS011;7019;50.766;4.474;2023-02-19T07:49:09;8.80;;;2.17;;
13897;SDS011;7019;50.766;4.474;2023-02-19T07:51:36;12.50;;;2.40;;
13897;SDS011;7019;50.766;4.474;2023-02-19T07:54:04;11.57;;;2.67;;
13897;SDS011;7019;50.766;4.474;2023-02-19T07:56:31;9.63;;;2.50;;
13897;SDS011;7019;50.766;4.474;2023-02-19T07:58:59;11.33;;;3.00;;
13897;SDS011;7019;50.766;4.474;2023-02-19T08:01:26;10.37;;;2.40;;
13897;SDS011;7019;50.766;4.474;2023-02-19T08:04:09;11.10;;;2.70;;
13897;SDS011;7019;50.766;4.474;2023-02-19T08:06:37;12.87;;;2.53;;
13897;SDS011;7019;50.766;4.474;2023-02-19T08:09:04;12.97;;;2.37;;
13897;SDS011;7019;50.766;4.474;2023-02-19T08:11:32;14.10;;;2.40;;
13897;SDS011;7019;50.766;4.474;2023-02-19T08:14:17;8.40;;;2.10;;
13897;SDS011;7019;50.766;4.474;2023-02-19T08:16:47;10.30;;;2.40;;
13897;SDS011;7019;50.766;4.474;2023-02-19T08:19:17;10.00;;;2.40;;
13897;SDS011;7019;50.766;4.474;2023-02-19T08:21:44;9.07;;;2.20;;
13897;SDS011;7019;50.766;4.474;2023-02-19T08:24:11;12.73;;;2.57;;
13897;SDS011;7019;50.766;4.474;2023-02-19T08:26:38;12.33;;;2.37;;
13897;SDS011;7019;50.766;4.474;2023-02-19T08:29:06;8.83;;;2.50;;
13897;SDS011;7019;50.766;4.474;2023-02-19T08:31:33;7.93;;;2.23;;
13897;SDS011;7019;50.766;4.474;2023-02-19T08:34:00;13.20;;;2.73;;
13897;SDS011;7019;50.766;4.474;2023-02-19T08:36:29;6.10;;;1.93;;
13897;SDS011;7019;50.766;4.474;2023-02-19T08:38:56;9.63;;;2.87;;
13897;SDS011;7019;50.766;4.474;2023-02-19T08:41:23;9.23;;;2.10;;
13897;SDS011;7019;50.766;4.474;2023-02-19T08:43:50;11.27;;;2.73;;
13897;SDS011;7019;50.766;4.474;2023-02-19T08:46:17;12.27;;;2.30;;
13897;SDS011;7019;50.766;4.474;2023-02-19T08:48:45;17.80;;;3.10;;
13897;SDS011;7019;50.766;4.474;2023-02-19T08:51:12;11.63;;;2.53;;
13897;SDS011;7019;50.766;4.474;2023-02-19T08:53:40;10.23;;;3.03;;
13897;SDS011;7019;50.766;4.474;2023-02-19T08:56:08;10.83;;;2.60;;
13897;SDS011;7019;50.766;4.474;2023-02-19T08:58:37;8.20;;;2.70;;
13897;SDS011;7019;50.766;4.474;2023-02-19T09:01:06;8.67;;;2.80;;
13897;SDS011;7019;50.766;4.474;2023-02-19T09:03:35;8.07;;;2.47;;
13897;SDS011;7019;50.766;4.474;2023-02-19T09:06:02;10.00;;;3.27;;
13897;SDS011;7019;50.766;4.474;2023-02-19T09:08:29;10.37;;;2.47;;
13897;SDS011;7019;50.766;4.474;2023-02-19T09:10:58;11.93;;;2.33;;
13897;SDS011;7019;50.766;4.474;2023-02-19T09:13:27;12.03;;;3.13;;
13897;SDS011;7019;50.766;4.474;2023-02-19T09:15:54;11.07;;;2.57;;
13897;SDS011;7019;50.766;4.474;2023-02-19T09:18:22;12.83;;;2.50;;
13897;SDS011;7019;50.766;4.474;2023-02-19T09:20:49;10.47;;;2.80;;
13897;SDS011;7019;50.766;4.474;2023-02-19T09:23:16;11.30;;;2.90;;
13897;SDS011;7019;50.766;4.474;2023-02-19T09:25:43;7.77;;;2.73;;
13897;SDS011;7019;50.766;4.474;2023-02-19T09:28:12;10.93;;;3.10;;
13897;SDS011;7019;50.766;4.474;2023-02-19T09:30:40;7.30;;;3.23;;
13897;SDS011;7019;50.766;4.474;2023-02-19T09:33:07;12.37;;;2.70;;
13897;SDS011;7019;50.766;4.474;2023-02-19T09:35:37;11.40;;;2.50;;
13897;SDS011;7019;50.766;4.474;2023-02-19T09:38:04;11.67;;;3.00;;
13897;SDS011;7019;50.766;4.474;2023-02-19T09:40:31;7.87;;;2.40;;
13897;SDS011;7019;50.766;4.474;2023-02-19T09:43:01;10.90;;;3.30;;
13897;SDS011;7019;50.766;4.474;2023-02-19T09:45:33;10.83;;;3.17;;
13897;SDS011;7019;50.766;4.474;2023-02-19T09:48:02;6.90;;;2.27;;
13897;SDS011;7019;50.766;4.474;2023-02-19T09:50:31;9.83;;;2.67;;
13897;SDS011;7019;50.766;4.474;2023-02-19T09:53:03;12.57;;;3.27;;
13897;SDS011;7019;50.766;4.474;2023-02-19T09:55:38;7.83;;;2.23;;
13897;SDS011;7019;50.766;4.474;2023-02-19T09:58:15;10.83;;;3.33;;
13897;SDS011;7019;50.766;4.474;2023-02-19T10:00:51;8.00;;;2.17;;
13897;SDS011;7019;50.766;4.474;2023-02-19T10:03:21;10.33;;;3.10;;
13897;SDS011;7019;50.766;4.474;2023-02-19T10:05:55;12.07;;;2.60;;
13897;SDS011;7019;50.766;4.474;2023-02-19T10:08:24;14.00;;;3.17;;
13897;SDS011;7019;50.766;4.474;2023-02-19T10:10:51;9.57;;;3.03;;
13897;SDS011;7019;50.766;4.474;2023-02-19T10:13:20;7.63;;;2.13;;
13897;SDS011;7019;50.766;4.474;2023-02-19T10:15:51;8.27;;;2.27;;
13897;SDS011;7019;50.766;4.474;2023-02-19T10:18:21;13.23;;;2.70;;
13897;SDS011;7019;50.766;4.474;2023-02-19T10:20:50;8.70;;;2.90;;
13897;SDS011;7019;50.766;4.474;2023-02-19T10:23:18;8.97;;;2.60;;
13897;SDS011;7019;50.766;4.474;2023-02-19T10:25:47;6.00;;;2.47;;
13897;SDS011;7019;50.766;4.474;2023-02-19T10:28:18;8.40;;;2.80;;
13897;SDS011;7019;50.766;4.474;2023-02-19T10:30:51;8.90;;;2.53;;
13897;SDS011;7019;50.766;4.474;2023-02-19T10:33:20;11.80;;;2.43;;
13897;SDS011;7019;50.766;4.474;2023-02-19T10:35:52;8.77;;;3.27;;
13897;SDS011;7019;50.766;4.474;2023-02-19T10:38:21;6.80;;;2.43;;
13897;SDS011;7019;50.766;4.474;2023-02-19T10:40:56;10.83;;;3.10;;
13897;SDS011;7019;50.766;4.474;2023-02-19T10:43:27;11.33;;;2.77;;
13897;SDS011;7019;50.766;4.474;2023-02-19T10:46:00;5.90;;;2.20;;
13897;SDS011;7019;50.766;4.474;2023-02-19T10:48:30;6.00;;;2.40;;
13897;SDS011;7019;50.766;4.474;2023-02-19T10:51:01;6.70;;;2.07;;
13897;SDS011;7019;50.766;4.474;2023-02-19T10:53:38;8.43;;;2.30;;
13897;SDS011;7019;50.766;4.474;2023-02-19T10:56:10;8.90;;;2.70;;
13897;SDS011;7019;50.766;4.474;2023-02-19T10:58:40;11.53;;;3.50;;
13897;SDS011;7019;50.766;4.474;2023-02-19T11:01:17;10.10;;;3.03;;
13897;SDS011;7019;50.766;4.474;2023-02-19T11:03:46;8.57;;;2.70;;
13897;SDS011;7019;50.766;4.474;2023-02-19T11:06:15;7.07;;;2.27;;
13897;SDS011;7019;50.766;4.474;2023-02-19T11:08:45;7.60;;;2.67;;
13897;SDS011;7019;50.766;4.474;2023-02-19T11:11:25;6.10;;;2.90;;
13897;SDS011;7019;50.766;4.474;2023-02-19T11:13:58;5.77;;;2.43;;
13897;SDS011;7019;50.766;4.474;2023-02-19T11:19:22;9.90;;;2.80;;
13897;SDS011;7019;50.766;4.474;2023-02-19T11:21:55;9.43;;;3.20;;
13897;SDS011;7019;50.766;4.474;2023-02-19T11:24:24;7.63;;;3.20;;
13897;SDS011;7019;50.766;4.474;2023-02-19T11:26:58;5.47;;;2.17;;
13897;SDS011;7019;50.766;4.474;2023-02-19T11:29:26;10.47;;;2.77;;
13897;SDS011;7019;50.766;4.474;2023-02-19T11:32:04;12.07;;;3.27;;
13897;SDS011;7019;50.766;4.474;2023-02-19T11:37:56;7.43;;;2.53;;
13897;SDS011;7019;50.766;4.474;2023-02-19T11:40:30;6.07;;;2.23;;
13897;SDS011;7019;50.766;4.474;2023-02-19T11:43:06;7.70;;;2.50;;
13897;SDS011;7019;50.766;4.474;2023-02-19T11:45:47;6.07;;;2.53;;
13897;SDS011;7019;50.766;4.474;2023-02-19T11:48:29;9.57;;;2.37;;
13897;SDS011;7019;50.766;4.474;2023-02-19T11:51:12;8.63;;;2.30;;
13897;SDS011;7019;50.766;4.474;2023-02-19T11:53:49;10.30;;;2.30;;
13897;SDS011;7019;50.766;4.474;2023-02-19T11:56:28;6.03;;;2.60;;
13897;SDS011;7019;50.766;4.474;2023-02-19T11:59:00;8.23;;;2.53;;
13897;SDS011;7019;50.766;4.474;2023-02-19T12:07:44;5.27;;;2.43;;
13897;SDS011;7019;50.766;4.474;2023-02-19T12:10:36;9.50;;;2.73;;
13897;SDS011;7019;50.766;4.474;2023-02-19T12:13:18;9.50;;;2.50;;
13897;SDS011;7019;50.766;4.474;2023-02-19T12:15:56;6.83;;;2.60;;
13897;SDS011;7019;50.766;4.474;2023-02-19T12:18:39;7.57;;;2.50;;
13897;SDS011;7019;50.766;4.474;2023-02-19T12:21:30;4.67;;;2.07;;
13897;SDS011;7019;50.766;4.474;2023-02-19T12:24:14;6.10;;;2.33;;
13897;SDS011;7019;50.766;4.474;2023-02-19T12:27:06;10.23;;;2.43;;
13897;SDS011;7019;50.766;4.474;2023-02-19T12:29:51;7.03;;;2.47;;
13897;SDS011;7019;50.766;4.474;2023-02-19T12:32:43;4.97;;;2.43;;
13897;SDS011;7019;50.766;4.474;2023-02-19T12:35:31;6.80;;;2.60;;
13897;SDS011;7019;50.766;4.474;2023-02-19T12:38:15;6.23;;;2.10;;
13897;SDS011;7019;50.766;4.474;2023-02-19T12:40:56;5.30;;;2.37;;
13897;SDS011;7019;50.766;4.474;2023-02-19T12:43:39;9.50;;;2.73;;
13897;SDS011;7019;50.766;4.474;2023-02-19T12:46:11;8.07;;;2.50;;
13897;SDS011;7019;50.766;4.474;2023-02-19T12:48:45;4.87;;;2.47;;
13897;SDS011;7019;50.766;4.474;2023-02-19T12:51:21;7.03;;;2.50;;
13897;SDS011;7019;50.766;4.474;2023-02-19T12:53:55;8.27;;;2.80;;
13897;SDS011;7019;50.766;4.474;2023-02-19T12:56:27;6.93;;;2.57;;
13897;SDS011;7019;50.766;4.474;2023-02-19T12:58:59;6.97;;;2.70;;
13897;SDS011;7019;50.766;4.474;2023-02-19T13:01:29;5.80;;;3.03;;
13897;SDS011;7019;50.766;4.474;2023-02-19T13:04:13;10.23;;;2.40;;
13897;SDS011;7019;50.766;4.474;2023-02-19T13:06:50;7.20;;;3.20;;
13897;SDS011;7019;50.766;4.474;2023-02-19T13:09:22;7.20;;;3.00;;
13897;SDS011;7019;50.766;4.474;2023-02-19T13:11:57;6.57;;;3.23;;
13897;SDS011;7019;50.766;4.474;2023-02-19T13:14:28;7.53;;;2.70;;
13897;SDS011;7019;50.766;4.474;2023-02-19T13:16:59;9.13;;;3.33;;
13897;SDS011;7019;50.766;4.474;2023-02-19T13:19:33;10.00;;;2.10;;
13897;SDS011;7019;50.766;4.474;2023-02-19T13:22:04;7.20;;;2.17;;
13897;SDS011;7019;50.766;4.474;2023-02-19T13:24:58;4.60;;;2.17;;
13897;SDS011;7019;50.766;4.474;2023-02-19T13:27:42;5.47;;;2.23;;
13897;SDS011;7019;50.766;4.474;2023-02-19T13:33:36;6.03;;;2.10;;
13897;SDS011;7019;50.766;4.474;2023-02-19T13:36:11;5.93;;;2.37;;
13897;SDS011;7019;50.766;4.474;2023-02-19T13:38:42;6.43;;;2.87;;
13897;SDS011;7019;50.766;4.474;2023-02-19T13:41:19;6.30;;;2.67;;
13897;SDS011;7019;50.766;4.474;2023-02-19T13:43:53;6.40;;;3.23;;
13897;SDS011;7019;50.766;4.474;2023-02-19T13:46:31;8.40;;;3.23;;
13897;SDS011;7019;50.766;4.474;2023-02-19T14:04:44;7.80;;;3.57;;
13897;SDS011;7019;50.766;4.474;2023-02-19T14:07:20;9.67;;;3.90;;
13897;SDS011;7019;50.766;4.474;2023-02-19T14:10:04;11.83;;;5.50;;
13897;SDS011;7019;50.766;4.474;2023-02-19T14:12:36;10.53;;;5.63;;
13897;SDS011;7019;50.766;4.474;2023-02-19T14:21:13;7.37;;;2.83;;
13897;SDS011;7019;50.766;4.474;2023-02-19T14:23:43;3.87;;;2.40;;
13897;SDS011;7019;50.766;4.474;2023-02-19T14:26:16;8.27;;;3.13;;
13897;SDS011;7019;50.766;4.474;2023-02-19T14:28:44;3.10;;;2.30;;
13897;SDS011;7019;50.766;4.474;2023-02-19T14:31:18;6.10;;;2.47;;
13897;SDS011;7019;50.766;4.474;2023-02-19T14:33:50;5.03;;;2.80;;
13897;SDS011;7019;50.766;4.474;2023-02-19T14:36:32;5.97;;;2.60;;
13897;SDS011;7019;50.766;4.474;2023-02-19T14:39:12;7.00;;;2.90;;
13897;SDS011;7019;50.766;4.474;2023-02-19T14:41:43;5.07;;;3.70;;
13897;SDS011;7019;50.766;4.474;2023-02-19T14:44:13;4.10;;;2.50;;
13897;SDS011;7019;50.766;4.474;2023-02-19T14:46:52;8.13;;;2.37;;
13897;SDS011;7019;50.766;4.474;2023-02-19T14:49:24;3.70;;;2.00;;
13897;SDS011;7019;50.766;4.474;2023-02-19T14:51:56;7.13;;;2.27;;
13897;SDS011;7019;50.766;4.474;2023-02-19T14:54:33;4.73;;;1.90;;
13897;SDS011;7019;50.766;4.474;2023-02-19T14:57:06;4.70;;;2.20;;
13897;SDS011;7019;50.766;4.474;2023-02-19T14:59:41;4.07;;;2.80;;
13897;SDS011;7019;50.766;4.474;2023-02-19T15:02:20;5.83;;;2.27;;
13897;SDS011;7019;50.766;4.474;2023-02-19T15:04:50;5.43;;;2.50;;
13897;SDS011;7019;50.766;4.474;2023-02-19T15:07:18;6.10;;;2.23;;
13897;SDS011;7019;50.766;4.474;2023-02-19T15:09:48;4.03;;;1.90;;
13897;SDS011;7019;50.766;4.474;2023-02-19T15:12:19;7.13;;;3.17;;
13897;SDS011;7019;50.766;4.474;2023-02-19T15:14:49;6.03;;;2.50;;
13897;SDS011;7019;50.766;4.474;2023-02-19T15:17:23;7.60;;;2.50;;
13897;SDS011;7019;50.766;4.474;2023-02-19T15:19:52;5.07;;;2.50;;
13897;SDS011;7019;50.766;4.474;2023-02-19T15:22:23;5.27;;;2.40;;
13897;SDS011;7019;50.766;4.474;2023-02-19T15:24:52;4.77;;;2.20;;
13897;SDS011;7019;50.766;4.474;2023-02-19T15:27:20;4.20;;;2.20;;
13897;SDS011;7019;50.766;4.474;2023-02-19T15:29:49;4.63;;;2.03;;
13897;SDS011;7019;50.766;4.474;2023-02-19T15:32:19;5.90;;;2.30;;
13897;SDS011;7019;50.766;4.474;2023-02-19T15:34:55;3.87;;;1.87;;
13897;SDS011;7019;50.766;4.474;2023-02-19T15:37:24;5.77;;;2.33;;
13897;SDS011;7019;50.766;4.474;2023-02-19T15:39:53;4.33;;;1.80;;
13897;SDS011;7019;50.766;4.474;2023-02-19T15:42:22;3.70;;;1.87;;
13897;SDS011;7019;50.766;4.474;2023-02-19T15:44:52;4.57;;;1.83;;
13897;SDS011;7019;50.766;4.474;2023-02-19T15:47:26;2.97;;;1.60;;
13897;SDS011;7019;50.766;4.474;2023-02-19T15:50:02;2.63;;;1.73;;
13897;SDS011;7019;50.766;4.474;2023-02-19T15:52:35;1.50;;;1.40;;
13897;SDS011;7019;50.766;4.474;2023-02-19T15:57:59;1.90;;;1.70;;
13897;SDS011;7019;50.766;4.474;2023-02-19T16:00:31;5.87;;;1.70;;
13897;SDS011;7019;50.766;4.474;2023-02-19T16:03:04;3.27;;;1.60;;